createdAt,value
2023-03-29T00:00:25.344Z,24.67
2023-03-29T00:01:35.652Z,24.68
2023-03-29T00:02:26.549Z,24.67
2023-03-29T00:03:25.397Z,24.64
2023-03-29T00:04:25.306Z,24.67
2023-03-29T00:05:25.307Z,24.67
2023-03-29T00:06:25.281Z,24.67
2023-03-29T00:07:25.268Z,24.67
2023-03-29T00:08:25.257Z,24.68
2023-03-29T00:09:25.276Z,24.67
2023-03-29T00:10:25.282Z,24.67
2023-03-29T00:11:25.325Z,24.67
2023-03-29T00:12:25.384Z,24.68
2023-03-29T00:13:25.440Z,24.68
2023-03-29T00:14:25.503Z,24.70
2023-03-29T00:15:25.564Z,24.71
2023-03-29T00:16:25.676Z,24.68
2023-03-29T00:17:25.723Z,24.70
2023-03-29T00:18:25.730Z,24.68
2023-03-29T00:19:25.794Z,24.68
2023-03-29T00:20:25.852Z,24.68
2023-03-29T00:21:25.903Z,24.67
2023-03-29T00:22:25.970Z,24.67
2023-03-29T00:23:26.010Z,24.68
2023-03-29T00:24:26.118Z,24.68
2023-03-29T00:25:26.916Z,24.68
2023-03-29T00:26:26.200Z,24.68
2023-03-29T00:27:26.253Z,24.66
2023-03-29T00:28:26.311Z,24.68
2023-03-29T00:29:26.354Z,24.67
2023-03-29T00:30:26.405Z,24.66
2023-03-29T00:31:26.527Z,24.67
2023-03-29T00:32:26.951Z,24.66
2023-03-29T00:33:26.539Z,24.66
2023-03-29T00:34:26.592Z,24.67
2023-03-29T00:35:26.683Z,24.67
2023-03-29T00:36:26.686Z,24.66
2023-03-29T00:37:26.824Z,24.66
2023-03-29T00:38:26.820Z,24.64
2023-03-29T00:39:26.876Z,24.66
2023-03-29T00:40:26.935Z,24.66
2023-03-29T00:41:26.998Z,24.66
2023-03-29T00:42:27.063Z,24.63
2023-03-29T00:43:27.145Z,24.67
2023-03-29T00:44:27.176Z,24.64
2023-03-29T00:45:27.240Z,24.66
2023-03-29T00:46:27.333Z,24.64
2023-03-29T00:47:27.410Z,24.67
2023-03-29T00:48:27.434Z,24.64
2023-03-29T00:49:27.494Z,24.66
2023-03-29T00:50:27.551Z,24.66
2023-03-29T00:51:27.612Z,24.66
2023-03-29T00:52:27.673Z,24.64
2023-03-29T00:53:27.723Z,24.64
2023-03-29T00:54:27.777Z,24.63
2023-03-29T00:55:27.854Z,24.66
2023-03-29T00:56:27.905Z,24.64
2023-03-29T00:57:28.032Z,24.66
2023-03-29T00:58:28.062Z,24.64
2023-03-29T00:59:28.088Z,24.63
2023-03-29T01:00:28.157Z,24.64
2023-03-29T01:01:28.348Z,24.64
2023-03-29T01:02:28.311Z,24.63
2023-03-29T01:03:28.954Z,24.64
2023-03-29T01:04:28.478Z,24.63
2023-03-29T01:05:28.456Z,24.62
2023-03-29T01:06:28.526Z,24.66
2023-03-29T01:07:28.589Z,24.64
2023-03-29T01:08:28.642Z,24.63
2023-03-29T01:09:28.681Z,24.62
2023-03-29T01:10:28.755Z,24.63
2023-03-29T01:11:28.795Z,24.63
2023-03-29T01:12:28.815Z,24.63
2023-03-29T01:13:28.858Z,24.63
2023-03-29T01:14:28.904Z,24.63
2023-03-29T01:15:29.060Z,24.60
2023-03-29T01:16:29.068Z,24.63
2023-03-29T01:17:29.072Z,24.60
2023-03-29T01:18:29.140Z,24.62
2023-03-29T01:19:29.189Z,24.62
2023-03-29T01:20:29.243Z,24.62
2023-03-29T01:21:29.326Z,24.63
2023-03-29T01:22:29.359Z,24.60
2023-03-29T01:23:29.417Z,24.63
2023-03-29T01:24:29.485Z,24.62
2023-03-29T01:25:29.591Z,24.60
2023-03-29T01:26:29.594Z,24.63
2023-03-29T01:27:29.665Z,24.62
2023-03-29T01:28:29.730Z,24.63
2023-03-29T01:29:29.867Z,24.62
2023-03-29T01:30:29.853Z,24.62
2023-03-29T01:31:29.941Z,24.60
2023-03-29T01:32:30.006Z,24.60
2023-03-29T01:33:30.036Z,24.62
2023-03-29T01:34:30.088Z,24.59
2023-03-29T01:35:30.158Z,24.63
2023-03-29T01:36:30.277Z,24.62
2023-03-29T01:37:30.269Z,24.60
2023-03-29T01:38:30.336Z,24.63
2023-03-29T01:39:30.437Z,24.60
2023-03-29T01:40:30.472Z,24.63
2023-03-29T01:41:30.539Z,24.62
2023-03-29T01:42:30.573Z,24.63
2023-03-29T01:43:30.615Z,24.62
2023-03-29T01:44:30.696Z,24.62
2023-03-29T01:45:30.746Z,24.64
2023-03-29T01:46:30.846Z,24.60
2023-03-29T01:47:30.887Z,24.62
2023-03-29T01:48:30.929Z,24.63
2023-03-29T01:49:30.989Z,24.62
2023-03-29T01:50:31.062Z,24.62
2023-03-29T01:51:31.988Z,24.60
2023-03-29T01:52:31.164Z,24.62
2023-03-29T01:53:31.220Z,24.63
2023-03-29T01:54:31.286Z,24.62
2023-03-29T01:55:31.337Z,24.62
2023-03-29T01:56:31.386Z,24.62
2023-03-29T01:57:31.460Z,24.63
2023-03-29T01:58:31.505Z,24.63
2023-03-29T01:59:31.566Z,24.62
2023-03-29T02:00:31.631Z,24.63
2023-03-29T02:01:32.650Z,24.62
2023-03-29T02:02:31.880Z,24.66
2023-03-29T02:03:31.879Z,24.66
2023-03-29T02:04:31.869Z,24.63
2023-03-29T02:05:31.938Z,24.64
2023-03-29T02:06:31.995Z,24.67
2023-03-29T02:07:32.049Z,24.64
2023-03-29T02:08:32.124Z,24.67
2023-03-29T02:09:32.196Z,24.64
2023-03-29T02:10:32.228Z,24.66
2023-03-29T02:11:32.287Z,24.67
2023-03-29T02:12:32.356Z,24.63
2023-03-29T02:13:32.409Z,24.66
2023-03-29T02:14:32.460Z,24.66
2023-03-29T02:15:32.548Z,24.66
2023-03-29T02:16:32.578Z,24.66
2023-03-29T02:17:32.671Z,24.67
2023-03-29T02:18:32.699Z,24.66
2023-03-29T02:19:32.965Z,24.67
2023-03-29T02:20:32.814Z,24.66
2023-03-29T02:21:32.868Z,24.66
2023-03-29T02:22:32.932Z,24.67
2023-03-29T02:23:33.006Z,24.64
2023-03-29T02:24:33.096Z,24.67
2023-03-29T02:25:33.101Z,24.63
2023-03-29T02:26:33.157Z,24.64
2023-03-29T02:27:33.218Z,24.66
2023-03-29T02:28:33.299Z,24.63
2023-03-29T02:29:33.342Z,24.64
2023-03-29T02:30:33.408Z,24.64
2023-03-29T02:31:33.492Z,24.63
2023-03-29T02:32:33.557Z,24.63
2023-03-29T02:33:33.584Z,24.64
2023-03-29T02:34:33.639Z,24.66
2023-03-29T02:35:33.718Z,24.64
2023-03-29T02:36:33.768Z,24.63
2023-03-29T02:37:33.807Z,24.64
2023-03-29T02:38:33.888Z,24.64
2023-03-29T02:39:33.917Z,24.63
2023-03-29T02:40:34.000Z,24.62
2023-03-29T02:41:34.049Z,24.64
2023-03-29T02:42:34.094Z,24.64
2023-03-29T02:43:34.215Z,24.66
2023-03-29T02:44:34.225Z,24.66
2023-03-29T02:45:34.292Z,24.63
2023-03-29T02:46:34.524Z,24.62
2023-03-29T02:47:34.409Z,24.63
2023-03-29T02:48:34.473Z,24.63
2023-03-29T02:49:34.524Z,24.66
2023-03-29T02:50:34.581Z,24.63
2023-03-29T02:51:34.644Z,24.64
2023-03-29T02:52:35.463Z,24.64
2023-03-29T02:53:34.762Z,24.64
2023-03-29T02:54:34.820Z,24.64
2023-03-29T02:55:34.980Z,24.64
2023-03-29T02:56:34.932Z,24.66
2023-03-29T02:57:35.055Z,24.66
2023-03-29T02:58:35.060Z,24.66
2023-03-29T02:59:35.120Z,24.64
2023-03-29T03:00:35.170Z,24.63
2023-03-29T03:01:35.291Z,24.67
2023-03-29T03:02:35.384Z,24.67
2023-03-29T03:03:35.425Z,24.67
2023-03-29T03:04:35.367Z,24.67
2023-03-29T03:05:35.424Z,24.68
2023-03-29T03:06:35.470Z,24.67
2023-03-29T03:07:35.511Z,24.68
2023-03-29T03:08:35.560Z,24.71
2023-03-29T03:09:35.596Z,24.68
2023-03-29T03:10:35.656Z,24.68
2023-03-29T03:11:35.680Z,24.74
2023-03-29T03:12:35.719Z,24.73
2023-03-29T03:13:35.771Z,24.74
2023-03-29T03:14:35.812Z,24.78
2023-03-29T03:15:35.919Z,24.77
2023-03-29T03:16:35.911Z,24.76
2023-03-29T03:17:35.954Z,24.78
2023-03-29T03:18:35.939Z,24.80
2023-03-29T03:19:35.961Z,24.81
2023-03-29T03:20:36.981Z,24.84
2023-03-29T03:21:36.024Z,24.81
2023-03-29T03:22:36.059Z,24.84
2023-03-29T03:23:36.088Z,24.85
2023-03-29T03:24:36.111Z,24.88
2023-03-29T03:25:36.139Z,24.87
2023-03-29T03:26:36.157Z,24.90
2023-03-29T03:27:36.182Z,24.90
2023-03-29T03:28:36.210Z,24.91
2023-03-29T03:29:36.240Z,24.91
2023-03-29T03:30:36.984Z,24.94
2023-03-29T03:31:36.343Z,24.92
2023-03-29T03:32:36.364Z,24.94
2023-03-29T03:33:36.321Z,24.95
2023-03-29T03:34:36.342Z,24.98
2023-03-29T03:35:36.375Z,24.98
2023-03-29T03:36:36.500Z,24.98
2023-03-29T03:37:36.406Z,24.98
2023-03-29T03:38:36.427Z,24.99
2023-03-29T03:39:36.433Z,24.99
2023-03-29T03:40:36.441Z,25.01
2023-03-29T03:41:36.517Z,25.01
2023-03-29T03:42:36.464Z,24.99
2023-03-29T03:43:36.487Z,25.04
2023-03-29T03:44:36.487Z,25.04
2023-03-29T03:45:36.526Z,25.04
2023-03-29T03:46:36.505Z,25.05
2023-03-29T03:47:36.516Z,25.05
2023-03-29T03:48:36.525Z,25.08
2023-03-29T03:49:36.526Z,25.07
2023-03-29T03:50:36.536Z,25.05
2023-03-29T03:51:36.539Z,25.08
2023-03-29T03:52:36.540Z,25.12
2023-03-29T03:53:36.560Z,25.08
2023-03-29T03:54:36.559Z,25.09
2023-03-29T03:55:36.564Z,25.08
2023-03-29T03:56:36.561Z,25.11
2023-03-29T03:57:36.994Z,25.11
2023-03-29T03:58:36.574Z,25.09
2023-03-29T03:59:36.569Z,25.08
2023-03-29T04:00:36.580Z,25.08
2023-03-29T04:01:36.576Z,25.09
2023-03-29T04:02:36.727Z,25.12
2023-03-29T04:03:36.702Z,25.12
2023-03-29T04:04:36.652Z,25.12
2023-03-29T04:05:36.618Z,25.09
2023-03-29T04:06:36.629Z,25.12
2023-03-29T04:07:36.633Z,25.12
2023-03-29T04:08:36.649Z,25.12
2023-03-29T04:09:36.659Z,25.11
2023-03-29T04:10:36.661Z,25.12
2023-03-29T04:11:36.678Z,25.12
2023-03-29T04:12:36.684Z,25.09
2023-03-29T04:13:36.697Z,25.11
2023-03-29T04:14:36.707Z,25.09
2023-03-29T04:15:36.718Z,25.11
2023-03-29T04:16:36.722Z,25.11
2023-03-29T04:17:36.811Z,25.12
2023-03-29T04:18:36.822Z,25.09
2023-03-29T04:19:36.749Z,25.11
2023-03-29T04:20:36.761Z,25.12
2023-03-29T04:21:36.777Z,25.09
2023-03-29T04:22:36.780Z,25.11
2023-03-29T04:23:36.805Z,25.11
2023-03-29T04:24:36.805Z,25.05
2023-03-29T04:25:36.815Z,25.09
2023-03-29T04:26:36.848Z,25.08
2023-03-29T04:27:36.871Z,25.08
2023-03-29T04:28:36.898Z,25.08
2023-03-29T04:29:37.011Z,25.08
2023-03-29T04:30:36.902Z,25.08
2023-03-29T04:31:36.943Z,25.08
2023-03-29T04:32:36.949Z,25.08
2023-03-29T04:33:36.998Z,25.11
2023-03-29T04:34:36.954Z,25.09
2023-03-29T04:35:37.031Z,25.12
2023-03-29T04:36:36.984Z,25.08
2023-03-29T04:37:36.997Z,25.08
2023-03-29T04:38:37.010Z,25.08
2023-03-29T04:39:37.023Z,25.11
2023-03-29T04:40:37.042Z,25.09
2023-03-29T04:41:37.056Z,25.09
2023-03-29T04:42:37.075Z,25.07
2023-03-29T04:43:39.725Z,25.11
2023-03-29T04:44:37.125Z,25.05
2023-03-29T04:45:37.075Z,25.05
2023-03-29T04:46:37.159Z,25.07
2023-03-29T04:47:37.064Z,25.07
2023-03-29T04:48:37.065Z,25.07
2023-03-29T04:49:37.045Z,25.02
2023-03-29T04:50:37.042Z,25.05
2023-03-29T04:51:37.046Z,25.04
2023-03-29T04:52:37.032Z,25.04
2023-03-29T04:53:37.014Z,25.07
2023-03-29T04:54:37.009Z,25.04
2023-03-29T04:55:37.003Z,25.04
2023-03-29T04:56:36.993Z,25.04
2023-03-29T04:57:37.053Z,24.99
2023-03-29T04:58:36.984Z,25.02
2023-03-29T04:59:36.983Z,25.04
2023-03-29T05:00:36.974Z,25.02
2023-03-29T05:01:37.055Z,25.02
2023-03-29T05:02:37.001Z,24.99
2023-03-29T05:03:36.952Z,24.99
2023-03-29T05:04:36.985Z,25.01
2023-03-29T05:05:36.937Z,25.01
2023-03-29T05:06:37.011Z,24.99
2023-03-29T05:07:36.926Z,24.99
2023-03-29T05:08:36.917Z,24.99
2023-03-29T05:09:36.914Z,24.99
2023-03-29T05:10:36.905Z,24.99
2023-03-29T05:11:36.902Z,25.01
2023-03-29T05:12:36.943Z,25.01
2023-03-29T05:13:36.895Z,25.02
2023-03-29T05:14:36.877Z,24.97
2023-03-29T05:15:37.162Z,24.99
2023-03-29T05:16:36.893Z,25.02
2023-03-29T05:17:36.875Z,25.01
2023-03-29T05:18:36.850Z,25.02
2023-03-29T05:19:36.840Z,25.01
2023-03-29T05:20:36.837Z,25.02
2023-03-29T05:21:36.904Z,25.01
2023-03-29T05:22:36.811Z,24.98
2023-03-29T05:23:36.809Z,24.98
2023-03-29T05:24:36.809Z,25.01
2023-03-29T05:25:36.791Z,24.98
2023-03-29T05:26:36.795Z,24.99
2023-03-29T05:27:36.784Z,24.98
2023-03-29T05:28:36.769Z,25.04
2023-03-29T05:29:36.798Z,25.01
2023-03-29T05:30:36.764Z,24.98
2023-03-29T05:31:36.801Z,24.91
2023-03-29T05:32:36.881Z,24.80
2023-03-29T05:33:36.755Z,24.70
2023-03-29T05:34:36.735Z,24.64
2023-03-29T05:35:36.737Z,24.62
2023-03-29T05:36:36.716Z,24.62
2023-03-29T05:37:36.708Z,24.64
2023-03-29T05:38:36.735Z,24.68
2023-03-29T05:39:37.864Z,24.70
2023-03-29T05:40:36.692Z,24.74
2023-03-29T05:41:36.689Z,24.80
2023-03-29T05:42:36.734Z,24.81
2023-03-29T05:43:36.674Z,24.87
2023-03-29T05:44:36.680Z,24.92
2023-03-29T05:45:36.709Z,24.95
2023-03-29T05:46:36.708Z,24.98
2023-03-29T05:47:36.755Z,25.05
2023-03-29T05:48:36.719Z,25.09
2023-03-29T05:49:36.722Z,25.14
2023-03-29T05:50:36.755Z,25.17
2023-03-29T05:51:36.820Z,25.18
2023-03-29T05:52:36.862Z,25.19
2023-03-29T05:53:36.916Z,25.25
2023-03-29T05:54:36.979Z,25.30
2023-03-29T05:55:37.042Z,25.35
2023-03-29T05:56:37.065Z,25.30
2023-03-29T05:57:37.072Z,25.30
2023-03-29T05:58:37.073Z,25.32
2023-03-29T05:59:37.207Z,25.30
2023-03-29T06:00:37.079Z,25.33
2023-03-29T06:01:37.082Z,25.39
2023-03-29T06:02:37.180Z,25.39
2023-03-29T06:03:37.351Z,25.44
2023-03-29T06:04:37.391Z,25.44
2023-03-29T06:05:37.393Z,25.46
2023-03-29T06:06:38.041Z,25.50
2023-03-29T06:07:37.373Z,25.56
2023-03-29T06:08:37.403Z,25.57
2023-03-29T06:09:37.434Z,25.61
2023-03-29T06:10:37.471Z,25.63
2023-03-29T06:11:37.498Z,25.67
2023-03-29T06:12:37.645Z,25.69
2023-03-29T06:13:37.534Z,25.73
2023-03-29T06:14:38.054Z,25.73
2023-03-29T06:15:37.550Z,25.76
2023-03-29T06:16:37.694Z,25.81
2023-03-29T06:17:37.684Z,25.83
2023-03-29T06:18:37.584Z,25.87
2023-03-29T06:19:37.584Z,25.89
2023-03-29T06:20:37.588Z,25.91
2023-03-29T06:21:37.587Z,25.98
2023-03-29T06:22:37.590Z,26.02
2023-03-29T06:23:37.622Z,26.02
2023-03-29T06:24:37.611Z,26.04
2023-03-29T06:25:37.623Z,26.08
2023-03-29T06:26:37.646Z,26.08
2023-03-29T06:27:37.681Z,26.06
2023-03-29T06:28:37.699Z,26.05
2023-03-29T06:29:37.767Z,26.05
2023-03-29T06:30:37.773Z,26.05
2023-03-29T06:31:37.907Z,26.06
2023-03-29T06:32:37.889Z,26.08
2023-03-29T06:33:37.860Z,26.06
2023-03-29T06:34:38.666Z,26.09
2023-03-29T06:35:38.488Z,26.12
2023-03-29T06:36:38.891Z,26.13
2023-03-29T06:37:37.893Z,26.12
2023-03-29T06:38:39.907Z,26.13
2023-03-29T06:39:37.880Z,26.13
2023-03-29T06:40:37.900Z,26.15
2023-03-29T06:41:37.866Z,26.15
2023-03-29T06:42:37.866Z,26.19
2023-03-29T06:43:38.725Z,26.19
2023-03-29T06:44:37.838Z,26.18
2023-03-29T06:45:37.849Z,26.19
2023-03-29T06:46:37.883Z,26.19
2023-03-29T06:47:37.830Z,26.22
2023-03-29T06:48:37.817Z,26.25
2023-03-29T06:49:37.816Z,26.19
2023-03-29T06:50:37.806Z,26.25
2023-03-29T06:51:37.805Z,26.21
2023-03-29T06:52:37.794Z,26.25
2023-03-29T06:53:37.797Z,26.23
2023-03-29T06:54:38.564Z,26.22
2023-03-29T06:55:37.828Z,26.25
2023-03-29T06:56:37.897Z,26.23
2023-03-29T06:57:37.906Z,26.23
2023-03-29T06:58:37.879Z,26.23
2023-03-29T06:59:37.883Z,26.25
2023-03-29T07:00:37.972Z,26.26
2023-03-29T07:01:37.957Z,26.25
2023-03-29T07:02:37.945Z,26.25
2023-03-29T07:03:37.950Z,26.26
2023-03-29T07:04:38.022Z,26.23
2023-03-29T07:05:37.974Z,26.26
2023-03-29T07:06:37.995Z,26.26
2023-03-29T07:07:38.081Z,26.25
2023-03-29T07:08:38.022Z,26.23
2023-03-29T07:09:38.044Z,26.25
2023-03-29T07:10:38.060Z,26.25
2023-03-29T07:11:38.087Z,26.25
2023-03-29T07:12:38.103Z,26.28
2023-03-29T07:13:38.111Z,26.26
2023-03-29T07:14:38.139Z,26.29
2023-03-29T07:15:38.135Z,26.26
2023-03-29T07:16:38.278Z,26.29
2023-03-29T07:17:38.267Z,26.30
2023-03-29T07:18:38.455Z,26.25
2023-03-29T07:19:38.327Z,26.25
2023-03-29T07:20:38.281Z,26.26
2023-03-29T07:21:38.295Z,26.23
2023-03-29T07:22:38.328Z,26.22
2023-03-29T07:23:38.369Z,26.13
2023-03-29T07:24:38.396Z,26.02
2023-03-29T07:25:38.425Z,25.96
2023-03-29T07:26:39.307Z,25.91
2023-03-29T07:27:38.427Z,25.88
2023-03-29T07:28:38.441Z,25.85
2023-03-29T07:29:38.435Z,25.84
2023-03-29T07:30:38.454Z,25.85
2023-03-29T07:31:38.442Z,25.85
2023-03-29T07:32:38.658Z,25.85
2023-03-29T07:33:38.558Z,25.87
2023-03-29T07:34:38.560Z,25.88
2023-03-29T07:35:38.605Z,25.81
2023-03-29T07:36:38.647Z,25.85
2023-03-29T07:37:38.698Z,25.89
2023-03-29T07:38:38.751Z,25.92
2023-03-29T07:39:38.852Z,25.95
2023-03-29T07:40:38.849Z,25.96
2023-03-29T07:41:38.898Z,25.98
2023-03-29T07:42:38.950Z,25.96
2023-03-29T07:43:38.992Z,25.95
2023-03-29T07:44:39.049Z,25.98
2023-03-29T07:45:40.145Z,26.01
2023-03-29T07:46:39.164Z,25.99
2023-03-29T07:47:39.228Z,25.98
2023-03-29T07:48:39.218Z,25.98
2023-03-29T07:49:39.262Z,25.99
2023-03-29T07:50:40.083Z,26.02
2023-03-29T07:51:40.081Z,26.04
2023-03-29T07:52:39.369Z,26.04
2023-03-29T07:53:39.407Z,26.06
2023-03-29T07:54:39.446Z,26.05
2023-03-29T07:55:39.461Z,26.04
2023-03-29T07:56:39.548Z,26.05
2023-03-29T07:57:39.522Z,26.06
2023-03-29T07:58:39.550Z,26.04
2023-03-29T07:59:40.094Z,26.05
2023-03-29T08:00:39.716Z,26.05
2023-03-29T08:01:39.642Z,26.08
2023-03-29T08:02:39.744Z,26.09
2023-03-29T08:03:39.719Z,26.08
2023-03-29T08:04:39.778Z,26.11
2023-03-29T08:05:41.702Z,26.08
2023-03-29T08:06:39.793Z,26.11
2023-03-29T08:07:39.827Z,26.09
2023-03-29T08:08:39.844Z,26.11
2023-03-29T08:09:39.848Z,26.12
2023-03-29T08:10:39.870Z,26.12
2023-03-29T08:11:39.906Z,26.12
2023-03-29T08:12:40.101Z,26.12
2023-03-29T08:13:39.950Z,26.09
2023-03-29T08:14:39.996Z,26.09
2023-03-29T08:15:40.125Z,26.05
2023-03-29T08:16:40.126Z,25.92
2023-03-29T08:17:40.165Z,25.76
2023-03-29T08:18:40.180Z,25.70
2023-03-29T08:19:40.209Z,25.57
2023-03-29T08:20:41.207Z,25.53
2023-03-29T08:21:40.209Z,25.47
2023-03-29T08:22:40.206Z,25.44
2023-03-29T08:23:40.183Z,25.42
2023-03-29T08:24:40.177Z,25.40
2023-03-29T08:25:40.179Z,25.39
2023-03-29T08:26:40.160Z,25.36
2023-03-29T08:27:41.097Z,25.44
2023-03-29T08:28:40.156Z,25.44
2023-03-29T08:29:40.144Z,25.47
2023-03-29T08:30:40.202Z,25.53
2023-03-29T08:31:40.205Z,25.57
2023-03-29T08:32:40.173Z,25.61
2023-03-29T08:33:40.609Z,25.66
2023-03-29T08:34:40.211Z,25.67
2023-03-29T08:35:40.362Z,25.70
2023-03-29T08:36:40.316Z,25.74
2023-03-29T08:37:40.341Z,25.77
2023-03-29T08:38:40.357Z,25.81
2023-03-29T08:39:40.380Z,25.83
2023-03-29T08:40:40.407Z,25.87
2023-03-29T08:41:40.418Z,25.91
2023-03-29T08:42:40.475Z,25.92
2023-03-29T08:43:40.440Z,25.92
2023-03-29T08:44:40.436Z,25.92
2023-03-29T08:45:40.432Z,25.94
2023-03-29T08:46:40.698Z,25.95
2023-03-29T08:47:40.433Z,25.92
2023-03-29T08:48:40.408Z,25.92
2023-03-29T08:49:40.460Z,25.92
2023-03-29T08:50:40.426Z,25.98
2023-03-29T08:51:40.400Z,25.99
2023-03-29T08:52:40.384Z,25.99
2023-03-29T08:53:40.371Z,26.05
2023-03-29T08:54:40.378Z,26.02
2023-03-29T08:55:40.366Z,26.06
2023-03-29T08:56:41.146Z,26.12
2023-03-29T08:57:40.356Z,26.13
2023-03-29T08:58:40.359Z,26.18
2023-03-29T08:59:40.332Z,26.21
2023-03-29T09:00:40.330Z,26.22
2023-03-29T09:01:40.427Z,26.26
2023-03-29T09:02:40.373Z,26.28
2023-03-29T09:03:40.358Z,26.33
2023-03-29T09:04:40.360Z,26.32
2023-03-29T09:05:40.423Z,26.37
2023-03-29T09:06:40.501Z,26.39
2023-03-29T09:07:40.540Z,26.40
2023-03-29T09:08:40.612Z,26.43
2023-03-29T09:09:40.698Z,26.43
2023-03-29T09:10:40.715Z,26.46
2023-03-29T09:11:40.771Z,26.48
2023-03-29T09:12:40.820Z,26.50
2023-03-29T09:13:40.879Z,26.51
2023-03-29T09:14:41.615Z,26.51
2023-03-29T09:15:41.017Z,26.56
2023-03-29T09:16:41.130Z,26.56
2023-03-29T09:17:41.126Z,26.61
2023-03-29T09:18:41.118Z,26.65
2023-03-29T09:19:42.133Z,26.70
2023-03-29T09:20:41.212Z,26.71
2023-03-29T09:21:41.259Z,26.74
2023-03-29T09:22:41.309Z,26.75
2023-03-29T09:23:41.348Z,26.77
2023-03-29T09:24:41.410Z,26.80
2023-03-29T09:25:52.595Z,26.77
2023-03-29T09:26:42.467Z,26.80
2023-03-29T09:27:41.453Z,26.77
2023-03-29T09:28:41.466Z,26.78
2023-03-29T09:29:41.447Z,26.77
2023-03-29T09:30:41.481Z,26.78
2023-03-29T09:31:41.468Z,26.77
2023-03-29T09:32:41.490Z,26.74
2023-03-29T09:33:41.411Z,26.71
2023-03-29T09:34:41.444Z,26.68
2023-03-29T09:35:41.443Z,26.73
2023-03-29T09:36:41.402Z,26.70
2023-03-29T09:37:41.390Z,26.68
2023-03-29T09:38:41.387Z,26.65
2023-03-29T09:39:41.384Z,26.64
2023-03-29T09:40:41.377Z,26.64
2023-03-29T09:41:41.371Z,26.61
2023-03-29T09:42:41.382Z,26.60
2023-03-29T09:43:41.407Z,26.56
2023-03-29T09:44:41.418Z,26.57
2023-03-29T09:45:41.453Z,26.54
2023-03-29T09:46:42.414Z,26.53
2023-03-29T09:47:41.474Z,26.51
2023-03-29T09:48:41.383Z,26.50
2023-03-29T09:49:42.129Z,26.50
2023-03-29T09:50:42.127Z,26.50
2023-03-29T09:51:41.370Z,26.47
2023-03-29T09:52:41.358Z,26.47
2023-03-29T09:53:41.365Z,26.48
2023-03-29T09:54:41.352Z,26.46
2023-03-29T09:55:41.343Z,26.43
2023-03-29T09:56:41.370Z,26.40
2023-03-29T09:57:41.322Z,26.42
2023-03-29T09:58:41.325Z,26.40
2023-03-29T09:59:41.314Z,26.40
2023-03-29T10:00:41.310Z,26.37
2023-03-29T10:01:41.335Z,26.39
2023-03-29T10:02:41.334Z,26.36
2023-03-29T10:03:41.294Z,26.36
2023-03-29T10:04:41.419Z,26.35
2023-03-29T10:05:42.143Z,26.32
2023-03-29T10:06:41.351Z,26.33
2023-03-29T10:07:41.265Z,26.32
2023-03-29T10:08:41.263Z,26.28
2023-03-29T10:09:41.284Z,26.29
2023-03-29T10:10:41.248Z,26.28
2023-03-29T10:11:41.244Z,26.28
2023-03-29T10:12:41.248Z,26.26
2023-03-29T10:13:41.272Z,26.26
2023-03-29T10:14:41.303Z,26.25
2023-03-29T10:15:41.330Z,26.22
2023-03-29T10:16:41.397Z,26.21
2023-03-29T10:17:41.368Z,26.22
2023-03-29T10:18:41.419Z,26.19
2023-03-29T10:19:41.413Z,26.21
2023-03-29T10:20:41.445Z,26.19
2023-03-29T10:21:41.474Z,26.21
2023-03-29T10:22:41.506Z,26.22
2023-03-29T10:23:41.538Z,26.19
2023-03-29T10:24:41.560Z,26.19
2023-03-29T10:25:42.599Z,26.21
2023-03-29T10:26:41.602Z,26.21
2023-03-29T10:27:41.629Z,26.21
2023-03-29T10:28:41.649Z,26.21
2023-03-29T10:29:41.677Z,26.22
2023-03-29T10:30:41.720Z,26.21
2023-03-29T10:31:41.796Z,26.23
2023-03-29T10:32:41.888Z,26.22
2023-03-29T10:33:41.783Z,26.25
2023-03-29T10:34:41.797Z,26.26
2023-03-29T10:35:41.978Z,26.25
2023-03-29T10:36:41.839Z,26.28
2023-03-29T10:37:41.853Z,26.29
2023-03-29T10:38:41.886Z,26.30
2023-03-29T10:39:41.904Z,26.28
2023-03-29T10:40:41.924Z,26.28
2023-03-29T10:41:41.946Z,26.29
2023-03-29T10:42:41.978Z,26.28
2023-03-29T10:43:41.994Z,26.32
2023-03-29T10:44:42.020Z,26.28
2023-03-29T10:45:42.782Z,26.28
2023-03-29T10:46:42.147Z,26.26
2023-03-29T10:47:42.110Z,26.29
2023-03-29T10:48:42.121Z,26.25
2023-03-29T10:49:42.166Z,26.29
2023-03-29T10:50:42.189Z,26.29
2023-03-29T10:51:42.245Z,26.28
2023-03-29T10:52:42.263Z,26.30
2023-03-29T10:53:42.255Z,26.28
2023-03-29T10:54:42.343Z,26.26
2023-03-29T10:55:43.149Z,26.26
2023-03-29T10:56:42.412Z,26.26
2023-03-29T10:57:42.350Z,26.23
2023-03-29T10:58:42.386Z,26.25
2023-03-29T10:59:42.409Z,26.22
2023-03-29T11:00:42.680Z,26.23
2023-03-29T11:01:42.549Z,26.25
2023-03-29T11:02:42.574Z,26.21
2023-03-29T11:03:42.580Z,26.22
2023-03-29T11:04:42.550Z,26.22
2023-03-29T11:05:42.583Z,26.22
2023-03-29T11:06:42.611Z,26.19
2023-03-29T11:07:42.635Z,26.22
2023-03-29T11:08:42.669Z,26.19
2023-03-29T11:09:42.715Z,26.21
2023-03-29T11:10:42.738Z,26.21
2023-03-29T11:11:42.765Z,26.21
2023-03-29T11:12:42.784Z,26.18
2023-03-29T11:13:42.867Z,26.18
2023-03-29T11:14:42.853Z,26.21
2023-03-29T11:15:42.915Z,26.18
2023-03-29T11:16:42.909Z,26.16
2023-03-29T11:17:42.970Z,26.18
2023-03-29T11:18:42.990Z,26.16
2023-03-29T11:19:43.018Z,26.15
2023-03-29T11:20:43.060Z,26.15
2023-03-29T11:21:43.094Z,26.15
2023-03-29T11:22:43.732Z,26.13
2023-03-29T11:23:43.165Z,26.16
2023-03-29T11:24:43.195Z,26.18
2023-03-29T11:25:43.229Z,26.15
2023-03-29T11:26:43.262Z,26.18
2023-03-29T11:27:43.297Z,26.15
2023-03-29T11:28:43.324Z,26.13
2023-03-29T11:29:43.361Z,26.13
2023-03-29T11:30:43.405Z,26.13
2023-03-29T11:31:43.479Z,26.15
2023-03-29T11:32:43.516Z,26.13
2023-03-29T11:33:43.492Z,26.12
2023-03-29T11:34:43.531Z,26.12
2023-03-29T11:35:43.597Z,26.09
2023-03-29T11:36:43.605Z,26.09
2023-03-29T11:37:43.641Z,26.06
2023-03-29T11:38:45.224Z,26.06
2023-03-29T11:39:43.725Z,26.05
2023-03-29T11:40:43.780Z,26.06
2023-03-29T11:41:43.833Z,26.05
2023-03-29T11:42:43.874Z,26.04
2023-03-29T11:43:43.908Z,25.98
2023-03-29T11:44:43.959Z,26.01
2023-03-29T11:45:44.006Z,25.99
2023-03-29T11:46:44.086Z,25.99
2023-03-29T11:47:44.181Z,25.96
2023-03-29T11:48:44.139Z,25.95
2023-03-29T11:49:44.278Z,25.95
2023-03-29T11:50:44.271Z,25.94
2023-03-29T11:51:44.294Z,25.95
2023-03-29T11:52:44.342Z,25.92
2023-03-29T11:53:44.388Z,25.91
2023-03-29T11:54:44.444Z,25.89
2023-03-29T11:55:44.510Z,25.89
2023-03-29T11:56:44.588Z,25.89
2023-03-29T11:57:44.608Z,25.89
2023-03-29T11:58:44.668Z,25.87
2023-03-29T11:59:44.733Z,25.87
2023-03-29T12:00:44.800Z,25.88
2023-03-29T12:01:44.872Z,25.85
2023-03-29T12:02:45.031Z,25.87
2023-03-29T12:03:46.898Z,25.87
2023-03-29T12:04:45.050Z,25.84
2023-03-29T12:05:45.108Z,25.85
2023-03-29T12:06:45.144Z,25.84
2023-03-29T12:07:45.211Z,25.84
2023-03-29T12:08:45.254Z,25.84
2023-03-29T12:09:45.310Z,25.85
2023-03-29T12:10:45.373Z,25.84
2023-03-29T12:11:45.422Z,25.88
2023-03-29T12:12:45.495Z,25.89
2023-03-29T12:13:45.544Z,25.85
2023-03-29T12:14:45.594Z,25.87
2023-03-29T12:15:45.664Z,25.87
2023-03-29T12:16:45.801Z,25.88
2023-03-29T12:17:45.821Z,25.87
2023-03-29T12:18:46.702Z,25.87
2023-03-29T12:19:45.898Z,25.88
2023-03-29T12:20:45.968Z,25.87
2023-03-29T12:21:46.007Z,25.84
2023-03-29T12:22:46.068Z,25.87
2023-03-29T12:23:46.127Z,25.87
2023-03-29T12:24:46.194Z,25.87
2023-03-29T12:25:46.252Z,25.87
2023-03-29T12:26:46.292Z,25.88
2023-03-29T12:27:46.367Z,25.87
2023-03-29T12:28:46.425Z,25.87
2023-03-29T12:29:46.523Z,25.84
2023-03-29T12:30:46.542Z,25.87
2023-03-29T12:31:46.639Z,25.85
2023-03-29T12:32:46.782Z,25.85
2023-03-29T12:33:46.718Z,25.84
2023-03-29T12:34:46.783Z,25.84
2023-03-29T12:35:46.859Z,25.85
2023-03-29T12:36:46.897Z,25.84
2023-03-29T12:37:46.974Z,25.80
2023-03-29T12:38:46.962Z,25.78
2023-03-29T12:39:46.983Z,25.80
2023-03-29T12:40:47.083Z,25.77
2023-03-29T12:41:47.029Z,25.78
2023-03-29T12:42:47.037Z,25.77
2023-03-29T12:43:47.083Z,25.76
2023-03-29T12:44:47.123Z,25.74
2023-03-29T12:45:47.231Z,25.77
2023-03-29T12:46:47.268Z,25.74
2023-03-29T12:47:47.369Z,25.76
2023-03-29T12:48:47.313Z,25.74
2023-03-29T12:49:47.374Z,25.73
2023-03-29T12:50:47.411Z,25.73
2023-03-29T12:51:47.438Z,25.74
2023-03-29T12:52:47.464Z,25.74